KHGR/HGR METAR and TAF weather

Enter ICAO airport designator
Station Type Date Time Source
KHGR METAR 2022/01/27 23:53 UTC NOAA

KHGR 272353Z 17007KT 10SM FEW110 M01/M10 A3021 RMK AO2 SLP253 T10061100 10006 21017 58007


Station Type Date Time Source
KHGR Decoded METAR 2022/01/27 23:53 UTC NOAA

HAGERSTOWN REGIONAL AIRPORT, MD, United States (KHGR) 39-42N 077-44W 224M
Jan 27, 2022 - 06:53 PM EST / 2022.01.27 2353 UTC
Wind: from the S (170 degrees) at 8 MPH (7 KT):0
Visibility: 10 mile(s):0
Sky conditions: mostly clear
Temperature: 30.9 F (-0.6 C)
Windchill: 23 F (-5 C):1
Dew Point: 14.0 F (-10.0 C)
Relative Humidity: 48%
Pressure (altimeter): 30.21 in. Hg (1023 hPa)
Pressure tendency: 0.02 inches (0.7 hPa) lower than three hours ago
ob: KHGR 272353Z 17007KT 10SM FEW110 M01/M10 A3021 RMK AO2 SLP253 T10061100 10006 21017 58007
cycle: 0

Station Type Date Time Source
KHGR TAF UTC NOAA

Error!

Example: see airport list